createdAt,value
2023-05-09T00:01:32.408Z,97470.25
2023-05-09T00:03:35.002Z,97463.31
2023-05-09T00:05:37.563Z,97475.69
2023-05-09T00:07:40.242Z,97465.25
2023-05-09T00:09:42.816Z,97463.56
2023-05-09T00:11:45.482Z,97472.56
2023-05-09T00:13:50.652Z,97470.94
2023-05-09T00:15:54.022Z,97465.78
2023-05-09T00:17:56.677Z,97470.28
2023-05-09T00:20:01.482Z,97462.53
2023-05-09T00:22:04.104Z,97460.00
2023-05-09T00:24:07.477Z,97461.00
2023-05-09T00:26:10.908Z,97463.72
2023-05-09T00:28:13.492Z,97455.06
2023-05-09T00:30:17.467Z,97455.06
2023-05-09T00:32:20.099Z,97456.88
2023-05-09T00:34:22.806Z,97453.28
2023-05-09T00:36:25.436Z,97452.63
2023-05-09T00:38:28.195Z,97450.00
2023-05-09T00:40:30.842Z,97448.31
2023-05-09T00:42:33.440Z,97445.78
2023-05-09T00:44:36.047Z,97447.53
2023-05-09T00:46:40.704Z,97441.63
2023-05-09T00:48:43.326Z,97445.00
2023-05-09T00:50:47.105Z,97439.06
2023-05-09T00:52:49.757Z,97440.09
2023-05-09T00:54:52.921Z,97432.56
2023-05-09T00:56:55.639Z,97429.66
2023-05-09T00:58:58.291Z,97430.69
2023-05-09T01:01:02.228Z,97424.84
2023-05-09T01:03:06.795Z,97430.34
2023-05-09T01:05:10.093Z,97432.88
2023-05-09T01:07:19.091Z,97433.41
2023-05-09T01:09:30.804Z,97431.78
2023-05-09T01:11:37.562Z,97436.16
2023-05-09T01:13:50.818Z,97430.00
2023-05-09T01:16:00.187Z,97422.81
2023-05-09T01:18:12.611Z,97419.22
2023-05-09T01:20:22.014Z,97419.91
2023-05-09T01:22:30.840Z,97425.09
2023-05-09T01:24:57.513Z,97420.94
2023-05-09T01:27:16.691Z,97423.50
2023-05-09T01:29:36.176Z,97425.44
2023-05-09T01:31:42.307Z,97431.50
2023-05-09T01:33:46.907Z,97421.00
2023-05-09T01:35:54.821Z,97422.81
2023-05-09T01:37:59.520Z,97417.38
2023-05-09T01:40:08.561Z,97418.31
2023-05-09T01:42:12.554Z,97415.84
2023-05-09T01:44:16.421Z,97415.59
2023-05-09T01:46:24.982Z,97415.00
2023-05-09T01:48:30.114Z,97409.16
2023-05-09T01:50:34.383Z,97419.56
2023-05-09T01:52:38.642Z,97421.31
2023-05-09T01:54:41.556Z,97415.91
2023-05-09T01:56:44.853Z,97409.75
2023-05-09T01:58:50.144Z,97409.56
2023-05-09T02:00:54.982Z,97408.63
2023-05-09T02:03:02.269Z,97404.16
2023-05-09T02:05:05.805Z,97405.69
2023-05-09T02:07:09.464Z,97404.91
2023-05-09T02:09:12.788Z,97398.81
2023-05-09T02:11:15.545Z,97399.75
2023-05-09T02:13:18.443Z,97401.50
2023-05-09T02:15:21.975Z,97404.16
2023-05-09T02:17:24.630Z,97404.16
2023-05-09T02:19:28.539Z,97411.25
2023-05-09T02:21:31.892Z,97407.03
2023-05-09T02:23:34.876Z,97408.72
2023-05-09T02:25:37.700Z,97411.59
2023-05-09T02:27:41.410Z,97405.66
2023-05-09T02:29:46.973Z,97407.44
2023-05-09T02:31:53.103Z,97410.16
2023-05-09T02:33:56.401Z,97409.19
2023-05-09T02:36:00.856Z,97407.50
2023-05-09T02:38:04.166Z,97405.91
2023-05-09T02:40:09.026Z,97396.16
2023-05-09T02:42:13.130Z,97396.06
2023-05-09T02:44:15.741Z,97394.38
2023-05-09T02:46:18.358Z,97395.34
2023-05-09T02:48:21.033Z,97392.72
2023-05-09T02:50:23.615Z,97389.22
2023-05-09T02:52:27.592Z,97388.28
2023-05-09T02:54:30.600Z,97379.56
2023-05-09T02:56:33.201Z,97382.19
2023-05-09T02:58:35.787Z,97374.25
2023-05-09T03:00:38.360Z,97373.38
2023-05-09T03:02:41.012Z,97375.16
2023-05-09T03:04:43.643Z,97374.31
2023-05-09T03:06:46.334Z,97368.22
2023-05-09T03:08:50.241Z,97366.59
2023-05-09T03:10:52.958Z,97369.31
2023-05-09T03:12:55.851Z,97374.66
2023-05-09T03:14:58.484Z,97360.59
2023-05-09T03:17:01.037Z,97370.16
2023-05-09T03:19:04.044Z,97366.75
2023-05-09T03:21:06.719Z,97356.34
2023-05-09T03:23:10.062Z,97353.72
2023-05-09T03:25:14.187Z,97354.00
2023-05-09T03:27:16.919Z,97360.19
2023-05-09T03:29:19.467Z,97361.16
2023-05-09T03:31:22.175Z,97355.13
2023-05-09T03:33:24.915Z,97353.41
2023-05-09T03:35:27.542Z,97343.00
2023-05-09T03:37:30.089Z,97351.81
2023-05-09T03:39:32.673Z,97351.81
2023-05-09T03:41:37.047Z,97351.03
2023-05-09T03:43:39.743Z,97347.47
2023-05-09T03:45:42.296Z,97349.28
2023-05-09T03:47:44.927Z,97346.66
2023-05-09T03:49:47.519Z,97349.44
2023-05-09T03:51:50.312Z,97339.00
2023-05-09T03:53:52.919Z,97346.13
2023-05-09T03:55:55.662Z,97340.22
2023-05-09T03:57:59.589Z,97343.81
2023-05-09T04:00:02.637Z,97351.00
2023-05-09T04:02:05.940Z,97345.00
2023-05-09T04:04:08.754Z,97346.94
2023-05-09T04:06:11.510Z,97355.66
2023-05-09T04:08:14.840Z,97345.16
2023-05-09T04:10:17.441Z,97345.16
2023-05-09T04:12:20.022Z,97354.06
2023-05-09T04:14:27.379Z,97351.50
2023-05-09T04:16:31.382Z,97346.19
2023-05-09T04:18:34.135Z,97340.94
2023-05-09T04:20:36.977Z,97338.22
2023-05-09T04:22:39.553Z,97333.06
2023-05-09T04:24:42.180Z,97340.09
2023-05-09T04:26:44.906Z,97341.06
2023-05-09T04:28:47.483Z,97340.16
2023-05-09T04:30:51.887Z,97344.63
2023-05-09T04:32:55.493Z,97349.03
2023-05-09T04:34:58.104Z,97350.88
2023-05-09T04:37:00.688Z,97348.34
2023-05-09T04:39:03.796Z,97357.06
2023-05-09T04:41:06.517Z,97353.59
2023-05-09T04:43:09.110Z,97350.09
2023-05-09T04:45:12.763Z,97350.09
2023-05-09T04:47:19.380Z,97350.09
2023-05-09T04:49:21.916Z,97356.28
2023-05-09T04:51:24.506Z,97354.84
2023-05-09T04:53:28.193Z,97352.22
2023-05-09T04:55:30.763Z,97352.97
2023-05-09T04:57:33.336Z,97345.03
2023-05-09T04:59:36.157Z,97344.94
2023-05-09T05:01:38.772Z,97350.09
2023-05-09T05:03:42.733Z,97344.81
2023-05-09T05:05:45.706Z,97349.97
2023-05-09T05:07:48.300Z,97345.56
2023-05-09T05:09:52.892Z,97343.69
2023-05-09T05:12:01.871Z,97344.47
2023-05-09T05:14:05.675Z,97345.25
2023-05-09T05:16:08.321Z,97346.84
2023-05-09T05:18:10.909Z,97343.31
2023-05-09T05:20:14.856Z,97339.66
2023-05-09T05:22:17.482Z,97332.56
2023-05-09T05:24:20.123Z,97335.03
2023-05-09T05:26:22.714Z,97332.34
2023-05-09T05:28:25.421Z,97333.94
2023-05-09T05:30:27.989Z,97325.16
2023-05-09T05:32:30.673Z,97327.59
2023-05-09T05:34:33.240Z,97324.88
2023-05-09T05:36:37.142Z,97319.47
2023-05-09T05:38:39.736Z,97316.66
2023-05-09T05:40:42.343Z,97321.00
2023-05-09T05:42:46.142Z,97324.41
2023-05-09T05:44:48.783Z,97325.19
2023-05-09T05:46:51.336Z,97325.94
2023-05-09T05:48:53.893Z,97323.22
2023-05-09T05:50:56.634Z,97322.56
2023-05-09T05:53:00.548Z,97321.53
2023-05-09T05:55:03.420Z,97309.28
2023-05-09T05:57:06.166Z,97308.16
2023-05-09T05:59:09.196Z,97316.81
2023-05-09T06:01:13.828Z,97313.19
2023-05-09T06:03:17.460Z,97307.84
2023-05-09T06:05:20.259Z,97306.06
2023-05-09T06:07:22.845Z,97312.06
2023-05-09T06:09:26.740Z,97311.06
2023-05-09T06:11:29.310Z,97317.06
2023-05-09T06:13:31.877Z,97313.41
2023-05-09T06:15:34.472Z,97308.09
2023-05-09T06:17:37.274Z,97300.13
2023-05-09T06:19:39.870Z,97293.94
2023-05-09T06:21:42.462Z,97298.19
2023-05-09T06:24:01.433Z,97293.00
2023-05-09T06:26:09.019Z,97295.63
2023-05-09T06:28:11.563Z,97288.59
2023-05-09T06:30:25.709Z,97283.25
2023-05-09T06:32:29.505Z,97287.59
2023-05-09T06:34:32.317Z,97288.41
2023-05-09T06:36:35.052Z,97283.16
2023-05-09T06:38:37.635Z,97285.66
2023-05-09T06:40:40.241Z,97287.22
2023-05-09T06:42:44.166Z,97290.72
2023-05-09T06:44:46.744Z,97290.63
2023-05-09T06:46:49.375Z,97289.69
2023-05-09T06:48:51.927Z,97291.47
2023-05-09T06:50:54.520Z,97290.53
2023-05-09T06:52:57.086Z,97288.69
2023-05-09T06:54:59.620Z,97283.16
2023-05-09T06:57:02.268Z,97286.72
2023-05-09T06:59:06.369Z,97289.25
2023-05-09T07:01:09.039Z,97285.63
2023-05-09T07:03:11.771Z,97286.28
2023-05-09T07:05:15.265Z,97288.06
2023-05-09T07:07:18.035Z,97280.84
2023-05-09T07:09:20.946Z,97274.66
2023-05-09T07:11:23.657Z,97272.69
2023-05-09T07:13:26.436Z,97266.44
2023-05-09T07:15:40.372Z,97267.94
2023-05-09T07:17:44.329Z,97267.78
2023-05-09T07:19:46.915Z,97260.47
2023-05-09T07:21:49.515Z,97249.75
2023-05-09T07:23:52.149Z,97251.28
2023-05-09T07:25:58.432Z,97254.59
2023-05-09T07:28:01.045Z,97240.41
2023-05-09T07:30:04.102Z,97240.22
2023-05-09T07:32:08.254Z,97242.59
2023-05-09T07:34:10.857Z,97238.00
2023-05-09T07:36:14.759Z,97235.16
2023-05-09T07:38:17.366Z,97234.97
2023-05-09T07:40:22.770Z,97224.19
2023-05-09T07:42:25.429Z,97219.59
2023-05-09T07:44:28.027Z,97221.22
2023-05-09T07:46:30.674Z,97215.66
2023-05-09T07:48:34.621Z,97213.88
2023-05-09T07:50:37.225Z,97203.09
2023-05-09T07:52:39.804Z,97207.31
2023-05-09T07:54:42.405Z,97208.16
2023-05-09T07:56:44.953Z,97201.50
2023-05-09T07:58:47.561Z,97199.50
2023-05-09T08:00:50.100Z,97201.00
2023-05-09T08:02:52.963Z,97189.34
2023-05-09T08:04:58.894Z,97186.50
2023-05-09T08:07:04.050Z,97184.84
2023-05-09T08:09:06.723Z,97178.34
2023-05-09T08:11:09.278Z,97182.97
2023-05-09T08:13:11.868Z,97175.41
2023-05-09T08:15:14.765Z,97179.56
2023-05-09T08:17:17.643Z,97182.94
2023-05-09T08:19:21.043Z,97174.19
2023-05-09T08:21:24.999Z,97165.16
2023-05-09T08:23:27.941Z,97163.91
2023-05-09T08:25:30.616Z,97163.63
2023-05-09T08:27:33.247Z,97158.81
2023-05-09T08:29:35.834Z,97155.84
2023-05-09T08:31:38.529Z,97150.47
2023-05-09T08:33:41.894Z,97150.31
2023-05-09T08:35:44.784Z,97149.25
2023-05-09T08:37:48.844Z,97140.69
2023-05-09T08:39:51.452Z,97139.47
2023-05-09T08:41:56.682Z,97139.47
2023-05-09T08:43:59.332Z,97135.59
2023-05-09T08:46:06.642Z,97136.50
2023-05-09T08:48:10.421Z,97127.25
2023-05-09T08:50:15.502Z,97140.16
2023-05-09T08:52:18.882Z,97135.06
2023-05-09T08:54:23.995Z,97142.03
2023-05-09T08:56:26.648Z,97147.94
2023-05-09T08:58:29.682Z,97143.13
2023-05-09T09:00:33.101Z,97147.75
2023-05-09T09:02:37.055Z,97136.72
2023-05-09T09:04:39.797Z,97133.56
2023-05-09T09:06:43.618Z,97132.81
2023-05-09T09:08:48.883Z,97133.78
2023-05-09T09:10:53.114Z,97129.88
2023-05-09T09:12:57.364Z,97127.78
2023-05-09T09:15:05.329Z,97126.00
2023-05-09T09:17:10.051Z,97127.66
2023-05-09T09:19:14.620Z,97124.81
2023-05-09T09:21:19.191Z,97114.50
2023-05-09T09:23:26.382Z,97112.59
2023-05-09T09:25:28.960Z,97120.28
2023-05-09T09:27:33.220Z,97113.13
2023-05-09T09:29:36.082Z,97108.91
2023-05-09T09:31:38.685Z,97109.53
2023-05-09T09:33:41.270Z,97104.16
2023-05-09T09:35:43.875Z,97105.97
2023-05-09T09:37:46.796Z,97100.16
2023-05-09T09:39:55.379Z,97090.97
2023-05-09T09:41:57.933Z,97093.31
2023-05-09T09:44:08.160Z,97092.47
2023-05-09T09:46:10.892Z,97083.41
2023-05-09T09:48:13.656Z,97085.72
2023-05-09T09:50:18.225Z,97081.28
2023-05-09T09:52:25.032Z,97068.97
2023-05-09T09:54:28.315Z,97073.78
2023-05-09T09:56:40.301Z,97070.94
2023-05-09T09:58:42.936Z,97069.78
2023-05-09T10:00:47.041Z,97066.00
2023-05-09T10:02:51.154Z,97056.47
2023-05-09T10:04:53.759Z,97051.72
2023-05-09T10:07:00.611Z,97050.66
2023-05-09T10:09:03.281Z,97049.47
2023-05-09T10:11:06.102Z,97045.06
2023-05-09T10:13:13.036Z,97046.66
2023-05-09T10:15:18.688Z,97039.25
2023-05-09T10:17:24.998Z,97040.38
2023-05-09T10:19:29.585Z,97030.75
2023-05-09T10:21:32.708Z,97024.31
2023-05-09T10:23:39.115Z,97023.25
2023-05-09T10:25:52.644Z,97016.06
2023-05-09T10:27:57.005Z,97010.06
2023-05-09T10:30:05.695Z,97006.28
2023-05-09T10:32:14.346Z,97004.13
2023-05-09T10:34:20.963Z,96998.84
2023-05-09T10:36:24.888Z,96994.94
2023-05-09T10:38:30.152Z,96990.50
2023-05-09T10:40:33.463Z,96980.34
2023-05-09T10:42:37.384Z,96990.44
2023-05-09T10:44:42.581Z,96983.13
2023-05-09T10:46:46.467Z,96982.19
2023-05-09T10:48:50.525Z,96980.28
2023-05-09T10:50:55.721Z,96972.59
2023-05-09T10:53:08.840Z,96968.91
2023-05-09T10:55:11.547Z,96965.91
2023-05-09T10:57:21.436Z,96955.84
2023-05-09T10:59:34.585Z,96956.44
2023-05-09T11:01:39.234Z,96950.19
2023-05-09T11:03:56.019Z,96939.75
2023-05-09T11:06:00.186Z,96941.56
2023-05-09T11:08:23.287Z,96932.56
2023-05-09T11:10:25.884Z,96927.88
2023-05-09T11:12:29.365Z,96928.63
2023-05-09T11:14:33.315Z,96926.81
2023-05-09T11:16:59.486Z,96927.63
2023-05-09T11:19:02.107Z,96910.72
2023-05-09T11:21:10.020Z,96914.69
2023-05-09T11:23:15.690Z,96913.47
2023-05-09T11:25:18.466Z,96904.25
2023-05-09T11:27:22.609Z,96903.53
2023-05-09T11:29:28.048Z,96899.94
2023-05-09T11:31:30.677Z,96895.84
2023-05-09T11:33:37.920Z,96889.47
2023-05-09T11:35:44.694Z,96891.31
2023-05-09T11:37:50.752Z,96876.78
2023-05-09T11:39:58.174Z,96872.91
2023-05-09T11:42:02.029Z,96877.84
2023-05-09T11:44:04.796Z,96871.09
2023-05-09T11:46:07.471Z,96866.28
2023-05-09T11:48:10.437Z,96868.78
2023-05-09T11:50:14.203Z,96860.00
2023-05-09T11:52:16.995Z,96846.19
2023-05-09T11:54:20.891Z,96851.94
2023-05-09T11:56:24.066Z,96847.97
2023-05-09T11:58:27.144Z,96847.69
2023-05-09T12:00:29.881Z,96846.03
2023-05-09T12:02:34.760Z,96839.91
2023-05-09T12:04:37.733Z,96827.75
2023-05-09T12:06:40.379Z,96826.81
2023-05-09T12:08:42.974Z,96821.66
2023-05-09T12:10:47.629Z,96818.16
2023-05-09T12:12:51.915Z,96816.94
2023-05-09T12:14:56.015Z,96815.84
2023-05-09T12:16:59.111Z,96811.00
2023-05-09T12:19:04.050Z,96808.00
2023-05-09T12:21:07.425Z,96803.38
2023-05-09T12:23:11.478Z,96803.53
2023-05-09T12:25:14.287Z,96795.72
2023-05-09T12:27:18.778Z,96788.75
2023-05-09T12:29:21.585Z,96790.25
2023-05-09T12:31:24.390Z,96775.91
2023-05-09T12:33:27.494Z,96769.06
2023-05-09T12:35:30.072Z,96772.81
2023-05-09T12:37:33.545Z,96770.28
2023-05-09T12:39:36.124Z,96759.53
2023-05-09T12:41:57.379Z,96753.84
2023-05-09T12:44:05.576Z,96757.34
2023-05-09T12:46:08.770Z,96763.06
2023-05-09T12:48:11.795Z,96754.75
2023-05-09T12:50:14.498Z,96747.78
2023-05-09T12:52:19.191Z,96741.16
2023-05-09T12:54:23.285Z,96743.81
2023-05-09T12:56:25.861Z,96736.94
2023-05-09T12:58:30.751Z,96732.50
2023-05-09T13:00:44.495Z,96737.94
2023-05-09T13:02:47.217Z,96732.91
2023-05-09T13:04:49.826Z,96735.78
2023-05-09T13:06:53.849Z,96736.38
2023-05-09T13:09:01.207Z,96724.97
2023-05-09T13:11:15.648Z,96723.84
2023-05-09T13:13:20.132Z,96718.84
2023-05-09T13:15:24.128Z,96716.09
2023-05-09T13:17:28.133Z,96711.53
2023-05-09T13:19:30.708Z,96710.94
2023-05-09T13:21:33.301Z,96717.47
2023-05-09T13:23:35.828Z,96725.06
2023-05-09T13:25:38.503Z,96732.09
2023-05-09T13:27:41.106Z,96723.09
2023-05-09T13:29:43.744Z,96718.34
2023-05-09T13:31:46.310Z,96707.19
2023-05-09T13:33:51.919Z,96710.09
2023-05-09T13:35:54.900Z,96706.00
2023-05-09T13:37:58.835Z,96704.66
2023-05-09T13:40:01.408Z,96693.03
2023-05-09T13:42:04.941Z,96696.16
2023-05-09T13:44:07.594Z,96687.13
2023-05-09T13:46:10.227Z,96685.66
2023-05-09T13:48:12.833Z,96678.63
2023-05-09T13:50:17.045Z,96669.75
2023-05-09T13:52:19.996Z,96675.84
2023-05-09T13:54:23.137Z,96679.59
2023-05-09T13:56:26.154Z,96671.25
2023-05-09T13:58:29.029Z,96661.97
2023-05-09T14:00:31.604Z,96659.91
2023-05-09T14:02:34.240Z,96664.25
2023-05-09T14:04:36.841Z,96659.16
2023-05-09T14:06:47.556Z,96653.94
2023-05-09T14:08:50.452Z,96648.22
2023-05-09T14:10:53.041Z,96647.09
2023-05-09T14:12:57.023Z,96646.56
2023-05-09T14:14:59.681Z,96646.34
2023-05-09T14:17:02.817Z,96647.44
2023-05-09T14:19:07.023Z,96643.22
2023-05-09T14:21:09.716Z,96639.19
2023-05-09T14:23:13.689Z,96633.34
2023-05-09T14:25:16.380Z,96630.41
2023-05-09T14:27:18.977Z,96619.50
2023-05-09T14:29:21.562Z,96620.59
2023-05-09T14:31:24.234Z,96622.00
2023-05-09T14:33:27.428Z,96622.81
2023-05-09T14:35:32.835Z,96618.34
2023-05-09T14:37:35.861Z,96619.50
2023-05-09T14:39:40.497Z,96613.66
2023-05-09T14:41:43.055Z,96611.00
2023-05-09T14:43:45.682Z,96606.09
2023-05-09T14:45:48.612Z,96605.53
2023-05-09T14:47:51.312Z,96599.97
2023-05-09T14:49:54.007Z,96605.16
2023-05-09T14:51:56.596Z,96597.34
2023-05-09T14:53:59.167Z,96601.25
2023-05-09T14:56:03.384Z,96599.03
2023-05-09T14:58:05.933Z,96601.13
2023-05-09T15:00:20.633Z,96593.44
2023-05-09T15:02:24.709Z,96592.94
2023-05-09T15:04:30.548Z,96596.69
2023-05-09T15:06:33.421Z,96585.63
2023-05-09T15:08:36.346Z,96587.72
2023-05-09T15:10:39.483Z,96590.81
2023-05-09T15:12:44.258Z,96580.75
2023-05-09T15:14:46.941Z,96580.03
2023-05-09T15:16:51.549Z,96583.97
2023-05-09T15:18:54.217Z,96573.22
2023-05-09T15:20:56.948Z,96576.28
2023-05-09T15:22:59.508Z,96573.06
2023-05-09T15:25:04.001Z,96569.88
2023-05-09T15:27:08.441Z,96568.31
2023-05-09T15:29:12.357Z,96563.44
2023-05-09T15:31:15.264Z,96558.56
2023-05-09T15:33:20.852Z,96549.22
2023-05-09T15:35:23.523Z,96551.31
2023-05-09T15:37:26.153Z,96555.19
2023-05-09T15:39:28.754Z,96555.63
2023-05-09T15:41:31.620Z,96557.56
2023-05-09T15:43:34.188Z,96550.75
2023-05-09T15:45:38.810Z,96548.22
2023-05-09T15:47:41.420Z,96549.31
2023-05-09T15:49:44.129Z,96549.47
2023-05-09T15:51:46.701Z,96549.75
2023-05-09T15:53:49.854Z,96550.00
2023-05-09T15:55:52.426Z,96544.00
2023-05-09T15:57:55.035Z,96549.41
2023-05-09T15:59:57.647Z,96544.25
2023-05-09T16:02:01.810Z,96542.59
2023-05-09T16:04:05.322Z,96539.09
2023-05-09T16:06:08.240Z,96544.66
2023-05-09T16:08:10.892Z,96538.66
2023-05-09T16:10:13.830Z,96541.44
2023-05-09T16:12:16.516Z,96538.94
2023-05-09T16:14:19.411Z,96541.00
2023-05-09T16:16:22.066Z,96537.09
2023-05-09T16:18:25.996Z,96530.16
2023-05-09T16:20:28.596Z,96522.16
2023-05-09T16:22:31.422Z,96532.84
2023-05-09T16:24:34.079Z,96533.09
2023-05-09T16:26:36.718Z,96536.25
2023-05-09T16:28:40.145Z,96526.53
2023-05-09T16:30:42.917Z,96504.53
2023-05-09T16:32:45.592Z,96502.88
2023-05-09T16:34:49.609Z,96520.59
2023-05-09T16:36:52.281Z,96514.59
2023-05-09T16:38:54.857Z,96513.31
2023-05-09T16:40:57.425Z,96510.22
2023-05-09T16:42:59.992Z,96508.19
2023-05-09T16:45:02.547Z,96503.94
2023-05-09T16:47:05.114Z,96504.22
2023-05-09T16:49:07.701Z,96503.13
2023-05-09T16:51:11.576Z,96502.09
2023-05-09T16:53:14.177Z,96499.19
2023-05-09T16:55:16.950Z,96502.56
2023-05-09T16:57:19.495Z,96502.41
2023-05-09T16:59:22.055Z,96504.28
2023-05-09T17:01:27.114Z,96495.53
2023-05-09T17:03:31.211Z,96508.84
2023-05-09T17:05:34.005Z,96493.00
2023-05-09T17:07:37.926Z,96497.06
2023-05-09T17:09:40.682Z,96491.72
2023-05-09T17:11:43.253Z,96495.78
2023-05-09T17:13:45.917Z,96496.72
2023-05-09T17:15:48.515Z,96497.03
2023-05-09T17:17:51.303Z,96501.13
2023-05-09T17:19:53.937Z,96504.47
2023-05-09T17:21:58.841Z,96513.25
2023-05-09T17:24:03.216Z,96521.75
2023-05-09T17:26:05.874Z,96527.63
2023-05-09T17:28:08.532Z,96532.03
2023-05-09T17:30:11.515Z,96539.97
2023-05-09T17:32:15.613Z,96552.00
2023-05-09T17:34:18.152Z,96552.72
2023-05-09T17:36:20.747Z,96547.59
2023-05-09T17:38:23.311Z,96553.31
2023-05-09T17:40:27.373Z,96550.13
2023-05-09T17:42:29.925Z,96551.81
2023-05-09T17:44:32.762Z,96546.66
2023-05-09T17:46:35.482Z,96556.25
2023-05-09T17:48:38.728Z,96554.44
2023-05-09T17:50:43.734Z,96549.75
2023-05-09T17:52:46.361Z,96549.91
2023-05-09T17:54:48.924Z,96550.88
2023-05-09T17:56:55.951Z,96548.59
2023-05-09T17:59:00.037Z,96552.16
2023-05-09T18:01:02.576Z,96546.69
2023-05-09T18:03:06.067Z,96548.81
2023-05-09T18:05:10.337Z,96552.16
2023-05-09T18:07:12.914Z,96551.09
2023-05-09T18:09:15.507Z,96551.81
2023-05-09T18:11:18.194Z,96549.91
2023-05-09T18:13:22.432Z,96557.56
2023-05-09T18:15:26.094Z,96559.09
2023-05-09T18:17:28.739Z,96562.47
2023-05-09T18:19:31.356Z,96564.25
2023-05-09T18:21:33.946Z,96565.22
2023-05-09T18:23:36.511Z,96564.38
2023-05-09T18:25:39.561Z,96561.41
2023-05-09T18:27:42.126Z,96565.22
2023-05-09T18:29:47.359Z,96569.91
2023-05-09T18:31:50.462Z,96568.34
2023-05-09T18:33:53.198Z,96573.63
2023-05-09T18:35:56.339Z,96572.06
2023-05-09T18:37:59.915Z,96571.38
2023-05-09T18:40:02.546Z,96570.97
2023-05-09T18:42:06.318Z,96585.13
2023-05-09T18:44:08.977Z,96578.53
2023-05-09T18:46:17.084Z,96590.03
2023-05-09T18:48:20.028Z,96591.59
2023-05-09T18:50:22.558Z,96595.31
2023-05-09T18:52:25.140Z,96593.59
2023-05-09T18:54:27.689Z,96602.59
2023-05-09T18:56:30.314Z,96597.66
2023-05-09T18:58:33.103Z,96606.88
2023-05-09T19:00:38.978Z,96604.59
2023-05-09T19:02:43.069Z,96605.19
2023-05-09T19:04:46.687Z,96607.56
2023-05-09T19:06:49.995Z,96609.38
2023-05-09T19:08:53.839Z,96613.19
2023-05-09T19:10:56.900Z,96611.50
2023-05-09T19:12:59.565Z,96613.19
2023-05-09T19:15:02.276Z,96619.25
2023-05-09T19:17:05.999Z,96608.47
2023-05-09T19:19:09.969Z,96610.44
2023-05-09T19:21:13.154Z,96611.78
2023-05-09T19:23:16.003Z,96613.56
2023-05-09T19:25:18.812Z,96611.88
2023-05-09T19:27:21.368Z,96616.59
2023-05-09T19:29:24.090Z,96621.97
2023-05-09T19:31:26.738Z,96623.50
2023-05-09T19:33:29.399Z,96615.41
2023-05-09T19:35:33.298Z,96623.50
2023-05-09T19:37:36.130Z,96630.91
2023-05-09T19:39:38.695Z,96625.44
2023-05-09T19:41:41.654Z,96624.25
2023-05-09T19:43:44.250Z,96633.59
2023-05-09T19:45:46.850Z,96637.22
2023-05-09T19:47:49.554Z,96634.47
2023-05-09T19:49:52.252Z,96638.44
2023-05-09T19:51:56.215Z,96628.13
2023-05-09T19:53:58.815Z,96630.41
2023-05-09T19:56:01.421Z,96629.81
2023-05-09T19:58:04.030Z,96629.81
2023-05-09T20:00:07.981Z,96628.78
2023-05-09T20:02:10.658Z,96633.72
2023-05-09T20:04:13.286Z,96635.97
2023-05-09T20:06:15.882Z,96635.13
2023-05-09T20:08:19.786Z,96628.81
2023-05-09T20:10:22.537Z,96629.94
2023-05-09T20:12:25.489Z,96633.91
2023-05-09T20:14:29.032Z,96630.44
2023-05-09T20:16:31.676Z,96632.03
2023-05-09T20:18:34.295Z,96624.22
2023-05-09T20:20:37.290Z,96620.53
2023-05-09T20:22:39.901Z,96626.53
2023-05-09T20:24:43.837Z,96620.06
2023-05-09T20:26:46.466Z,96619.25
2023-05-09T20:28:49.061Z,96623.16
2023-05-09T20:30:51.641Z,96616.03
2023-05-09T20:32:54.249Z,96617.13
2023-05-09T20:34:57.210Z,96610.78
2023-05-09T20:36:59.764Z,96618.25
2023-05-09T20:39:02.600Z,96607.38
2023-05-09T20:41:06.517Z,96608.09
2023-05-09T20:43:09.090Z,96612.28
2023-05-09T20:45:11.846Z,96617.44
2023-05-09T20:47:14.396Z,96611.97
2023-05-09T20:49:17.020Z,96608.25
2023-05-09T20:51:19.586Z,96607.19
2023-05-09T20:53:26.239Z,96603.47
2023-05-09T20:55:28.844Z,96601.59
2023-05-09T20:57:32.846Z,96602.31
2023-05-09T20:59:35.649Z,96603.97
2023-05-09T21:01:40.241Z,96601.47
2023-05-09T21:03:42.981Z,96603.34
2023-05-09T21:05:45.569Z,96600.63
2023-05-09T21:07:48.144Z,96600.88
2023-05-09T21:09:50.824Z,96605.13
2023-05-09T21:11:53.402Z,96605.13
2023-05-09T21:13:57.376Z,96602.28
2023-05-09T21:15:59.952Z,96602.16
2023-05-09T21:18:02.704Z,96598.78
2023-05-09T21:20:06.028Z,96604.66
2023-05-09T21:22:08.798Z,96598.34
2023-05-09T21:24:11.512Z,96593.81
2023-05-09T21:26:14.071Z,96597.19
2023-05-09T21:28:17.332Z,96598.75
2023-05-09T21:30:21.476Z,96597.81
2023-05-09T21:32:24.444Z,96593.47
2023-05-09T21:34:27.052Z,96591.94
2023-05-09T21:36:29.628Z,96585.94
2023-05-09T21:38:32.197Z,96586.66
2023-05-09T21:40:34.848Z,96592.13
2023-05-09T21:42:37.641Z,96589.19
2023-05-09T21:44:40.247Z,96590.22
2023-05-09T21:46:46.385Z,96589.41
2023-05-09T21:48:49.138Z,96590.13
2023-05-09T21:50:51.678Z,96587.28
2023-05-09T21:52:56.121Z,96591.94
2023-05-09T21:54:58.717Z,96584.03
2023-05-09T21:57:01.257Z,96590.00
2023-05-09T21:59:04.030Z,96587.72
2023-05-09T22:01:06.601Z,96582.44
2023-05-09T22:03:10.837Z,96587.34
2023-05-09T22:05:13.739Z,96581.56
2023-05-09T22:07:16.339Z,96585.81
2023-05-09T22:09:18.980Z,96580.69
2023-05-09T22:11:22.148Z,96576.91
2023-05-09T22:13:24.855Z,96572.81
2023-05-09T22:15:27.828Z,96573.66
2023-05-09T22:17:30.476Z,96578.47
2023-05-09T22:19:34.439Z,96574.50
2023-05-09T22:21:37.008Z,96585.13
2023-05-09T22:23:39.662Z,96578.09
2023-05-09T22:25:42.232Z,96576.31
2023-05-09T22:27:44.875Z,96577.78
2023-05-09T22:29:47.454Z,96577.88
2023-05-09T22:31:50.079Z,96577.50
2023-05-09T22:33:52.726Z,96576.75
2023-05-09T22:35:56.976Z,96576.88
2023-05-09T22:37:59.540Z,96577.72
2023-05-09T22:40:02.164Z,96576.06
2023-05-09T22:42:04.980Z,96578.03
2023-05-09T22:44:07.902Z,96577.59
2023-05-09T22:46:10.516Z,96583.06
2023-05-09T22:48:13.119Z,96582.28
2023-05-09T22:50:15.882Z,96580.16
2023-05-09T22:52:20.107Z,96587.00
2023-05-09T22:54:23.167Z,96586.47
2023-05-09T22:56:26.178Z,96581.94
2023-05-09T22:58:28.808Z,96591.06
2023-05-09T23:00:31.809Z,96584.84
2023-05-09T23:02:34.576Z,96590.75
2023-05-09T23:04:37.219Z,96589.19
2023-05-09T23:06:39.829Z,96591.59
2023-05-09T23:08:43.716Z,96588.97
2023-05-09T23:10:46.326Z,96592.31
2023-05-09T23:12:49.013Z,96588.75
2023-05-09T23:14:51.597Z,96587.81
2023-05-09T23:16:54.165Z,96590.25
2023-05-09T23:18:56.815Z,96587.63
2023-05-09T23:20:59.437Z,96585.19
2023-05-09T23:23:03.571Z,96590.97
2023-05-09T23:25:09.253Z,96589.59
2023-05-09T23:27:11.830Z,96587.72
2023-05-09T23:29:14.997Z,96588.44
2023-05-09T23:31:17.623Z,96584.84
2023-05-09T23:33:20.348Z,96589.19
2023-05-09T23:35:26.195Z,96590.03
2023-05-09T23:37:28.793Z,96579.13
2023-05-09T23:39:32.238Z,96587.84
2023-05-09T23:41:36.431Z,96585.00
2023-05-09T23:43:39.022Z,96591.72
2023-05-09T23:45:41.705Z,96589.19
2023-05-09T23:47:44.284Z,96586.06
2023-05-09T23:49:46.865Z,96585.66
2023-05-09T23:51:49.455Z,96583.66
2023-05-09T23:53:52.030Z,96586.06
2023-05-09T23:55:54.592Z,96582.50
2023-05-09T23:57:59.412Z,96579.13
